Time;durP1;ratioP1;P1;durP2;ratioP2;P2;SDS_P1;SDS_P2;PMS_P1;PMS_P2;Temp;Humidity;BMP_temperature;BMP_pressure;BME280_temperature;BME280_humidity;BME280_pressure;Samples;Min_cycle;Max_cycle;Signal;HPM_P1;HPM_P2
2022/05/20 00:00:33;;;;;;;26.90;24.30;;;;;;;17.59;83.90;100828.31;5105071;28;20578;-63
2022/05/20 00:03:00;;;;;;;26.73;24.13;;;;;;;17.62;83.80;100833.38;5101857;28;20539;-63
2022/05/20 00:05:27;;;;;;;28.40;25.53;;;;;;;17.53;84.12;100838.97;5104629;28;20519;-62
2022/05/20 00:07:54;;;;;;;28.70;25.77;;;;;;;17.61;83.51;100837.09;5102173;28;20475;-62
2022/05/20 00:10:21;;;;;;;26.90;24.10;;;;;;;17.29;84.09;100836.13;5109356;28;20506;-62
2022/05/20 00:12:48;;;;;;;25.97;23.40;;;;;;;17.24;83.85;100829.56;5101547;28;20500;-62
2022/05/20 00:15:19;;;;;;;27.30;24.30;;;;;;;17.20;84.12;100831.72;5097556;28;20461;-63
2022/05/20 00:17:46;;;;;;;30.73;26.30;;;;;;;17.15;83.39;100839.53;5096840;28;20442;-63
2022/05/20 00:20:15;;;;;;;27.30;24.60;;;;;;;16.93;84.50;100828.34;5120849;28;20457;-62
2022/05/20 00:22:42;;;;;;;28.87;25.77;;;;;;;16.76;84.81;100832.84;5118491;28;20985;-63
2022/05/20 00:27:54;;;;;;;29.17;25.93;;;;;;;16.71;84.56;100835.22;5112240;28;20433;-61
2022/05/20 00:30:22;;;;;;;28.47;25.47;;;;;;;16.74;84.08;100836.75;5081305;28;20531;-61
2022/05/20 00:32:49;;;;;;;27.90;25.00;;;;;;;16.72;84.02;100844.19;5104844;28;20507;-62
2022/05/20 00:35:16;;;;;;;29.90;24.50;;;;;;;16.55;84.63;100848.69;5110935;28;20582;-62
2022/05/20 00:37:43;;;;;;;30.00;24.50;;;;;;;16.57;84.90;100847.50;5115611;28;20442;-61
2022/05/20 00:40:13;;;;;;;29.13;26.00;;;;;;;16.48;84.72;100848.50;5116652;28;20544;-62
2022/05/20 00:42:40;;;;;;;30.67;25.77;;;;;;;16.36;85.30;100847.97;5113332;28;20478;-61
2022/05/20 00:45:08;;;;;;;34.63;27.87;;;;;;;16.28;85.52;100856.00;5099735;28;20485;-61
2022/05/20 00:47:36;;;;;;;31.27;27.73;;;;;;;16.16;85.94;100860.88;5103037;28;20449;-62
2022/05/20 00:50:05;;;;;;;35.40;28.13;;;;;;;16.05;86.36;100860.31;5111338;28;20533;-62
2022/05/20 00:52:34;;;;;;;30.47;26.50;;;;;;;15.97;86.57;100856.59;5122941;28;20498;-62
2022/05/20 00:55:25;;;;;;;36.37;28.57;;;;;;;15.99;87.07;100859.97;5121700;28;20534;-63
2022/05/20 00:57:55;;;;;;;37.53;31.87;;;;;;;15.97;86.88;100861.97;5098469;28;20557;-63
2022/05/20 01:00:25;;;;;;;34.07;29.87;;;;;;;15.93;87.35;100867.84;5120707;28;20455;-62
2022/05/20 01:02:56;;;;;;;36.20;31.30;;;;;;;15.92;86.99;100872.41;5105228;28;20439;-62
2022/05/20 01:05:26;;;;;;;33.53;29.60;;;;;;;15.89;87.59;100864.63;5104944;28;20443;-62
2022/05/20 01:07:53;;;;;;;39.13;31.83;;;;;;;15.91;86.69;100862.59;5120057;28;20471;-63
2022/05/20 01:10:20;;;;;;;38.47;31.93;;;;;;;15.77;87.51;100860.50;5121318;28;20514;-62
2022/05/20 01:12:50;;;;;;;39.10;32.10;;;;;;;15.77;87.13;100861.34;5118490;28;20494;-62
2022/05/20 01:15:16;;;;;;;37.73;33.80;;;;;;;15.65;87.66;100859.91;5104205;28;20465;-62
2022/05/20 01:17:44;;;;;;;44.03;34.70;;;;;;;15.67;87.65;100859.75;5105913;28;20526;-63
2022/05/20 01:20:17;;;;;;;38.30;32.60;;;;;;;15.65;88.00;100859.06;5119566;28;20437;-62
2022/05/20 01:22:49;;;;;;;43.97;34.30;;;;;;;15.56;87.98;100863.56;5113001;28;20517;-63
2022/05/20 01:25:16;;;;;;;46.43;35.90;;;;;;;15.55;88.23;100864.53;5103794;28;20455;-62
2022/05/20 01:27:43;;;;;;;39.83;34.50;;;;;;;15.49;87.87;100852.56;5104964;28;20443;-62
2022/05/20 01:30:13;;;;;;;42.00;35.70;;;;;;;15.47;88.12;100856.38;5105524;28;21027;-62
2022/05/20 01:32:40;;;;;;;42.60;36.43;;;;;;;15.42;88.69;100855.03;5123890;28;20466;-62
2022/05/20 01:35:11;;;;;;;45.30;38.00;;;;;;;15.47;88.22;100867.16;5112412;28;20514;-62
2022/05/20 01:37:37;;;;;;;42.70;34.50;;;;;;;15.39;88.30;100855.34;5109685;28;20461;-64
2022/05/20 01:40:08;;;;;;;49.43;38.73;;;;;;;15.36;88.23;100863.75;5110868;28;20541;-63
2022/05/20 01:42:38;;;;;;;41.70;34.80;;;;;;;15.29;88.54;100856.44;5121671;28;20487;-63
2022/05/20 01:45:09;;;;;;;43.47;35.10;;;;;;;15.21;88.31;100851.84;5101693;28;20453;-62
2022/05/20 01:47:42;;;;;;;40.20;34.77;;;;;;;15.15;88.21;100857.84;5120938;28;20785;-62
2022/05/20 01:50:13;;;;;;;43.80;34.87;;;;;;;15.15;88.04;100856.00;5120881;28;20450;-63
2022/05/20 01:52:43;;;;;;;43.27;35.50;;;;;;;15.11;88.51;100857.31;5107852;28;20444;-63
2022/05/20 01:55:16;;;;;;;44.40;33.23;;;;;;;15.12;88.05;100850.94;5114016;28;20703;-63
2022/05/20 01:57:47;;;;;;;41.10;33.23;;;;;;;15.03;88.29;100851.84;5099599;28;20431;-63
2022/05/20 02:00:16;;;;;;;42.20;34.97;;;;;;;14.98;88.24;100852.34;5107814;28;20435;-63
2022/05/20 02:02:48;;;;;;;38.03;33.03;;;;;;;14.94;88.26;100850.94;5101710;28;20577;-62
2022/05/20 02:05:19;;;;;;;39.40;33.70;;;;;;;14.88;88.07;100854.25;5108833;28;20442;-63
2022/05/20 02:07:49;;;;;;;44.70;33.77;;;;;;;14.80;88.38;100856.84;5106956;28;20481;-63
2022/05/20 02:10:21;;;;;;;40.73;33.90;;;;;;;14.76;88.65;100848.25;5101170;28;20458;-62
2022/05/20 02:12:50;;;;;;;44.77;34.73;;;;;;;14.73;88.53;100851.22;5103328;28;20442;-62
2022/05/20 02:15:19;;;;;;;44.10;35.33;;;;;;;14.68;88.83;100851.69;5080937;28;20473;-62
2022/05/20 02:17:50;;;;;;;40.93;34.37;;;;;;;14.66;88.97;100853.69;5093167;28;20434;-61
2022/05/20 02:20:19;;;;;;;41.37;33.47;;;;;;;14.68;88.84;100861.63;5109754;28;20438;-62
2022/05/20 02:22:48;;;;;;;40.57;33.87;;;;;;;14.73;88.63;100856.63;5120611;28;20611;-62
2022/05/20 02:25:19;;;;;;;44.90;34.80;;;;;;;14.77;89.16;100863.41;5121500;28;20529;-62
2022/05/20 02:27:49;;;;;;;45.37;36.40;;;;;;;14.83;89.50;100868.16;5109261;28;20443;-62
2022/05/20 02:30:18;;;;;;;45.67;35.37;;;;;;;14.99;89.32;100869.31;5101411;28;20447;-63
2022/05/20 02:32:48;;;;;;;47.37;35.80;;;;;;;15.06;89.28;100867.69;5119563;28;20493;-63
2022/05/20 02:35:15;;;;;;;51.23;36.60;;;;;;;15.04;89.05;100865.16;5102038;28;20443;-62
2022/05/20 02:37:42;;;;;;;43.50;33.17;;;;;;;15.12;88.83;100860.84;5109499;28;20459;-62
2022/05/20 02:40:12;;;;;;;47.03;36.67;;;;;;;14.98;88.93;100864.94;5100268;28;20462;-62
2022/05/20 02:42:40;;;;;;;45.13;36.30;;;;;;;14.93;89.15;100857.34;5062202;28;1612602;-62
2022/05/20 02:45:08;;;;;;;44.77;35.20;;;;;;;14.92;88.90;100868.25;5101865;28;20870;-62
2022/05/20 02:47:36;;;;;;;44.23;34.70;;;;;;;14.91;88.00;100858.47;5104678;28;20447;-62
2022/05/20 02:50:05;;;;;;;37.97;33.83;;;;;;;14.84;87.52;100856.41;5109026;28;20451;-62
2022/05/20 02:52:32;;;;;;;40.97;33.43;;;;;;;14.75;87.87;100854.63;5105466;28;20918;-61
2022/05/20 02:54:59;;;;;;;45.00;34.33;;;;;;;14.74;87.56;100863.72;5121334;28;20459;-62
2022/05/20 02:57:26;;;;;;;35.60;31.30;;;;;;;14.74;87.72;100868.22;5107659;28;20479;-62
2022/05/20 03:05:23;;;;;;;37.60;32.50;;;;;;;14.81;87.89;100872.84;5081738;28;20427;-63
2022/05/20 03:07:50;;;;;;;36.50;32.50;;;;;;;14.91;87.86;100874.63;5098642;28;20512;-61
2022/05/20 03:10:17;;;;;;;37.70;31.97;;;;;;;14.99;87.19;100872.84;5102064;28;20443;-61
2022/05/20 03:12:44;;;;;;;35.87;30.57;;;;;;;15.00;86.52;100876.41;5091801;28;20480;-61
2022/05/20 03:15:14;;;;;;;33.63;29.80;;;;;;;15.10;85.91;100879.00;5121801;28;20483;-61
2022/05/20 03:17:41;;;;;;;35.07;29.50;;;;;;;15.12;85.92;100883.25;5119179;28;20443;-61
2022/05/20 03:20:10;;;;;;;37.77;30.17;;;;;;;15.08;85.41;100881.84;5101078;28;20447;-61
2022/05/20 03:22:37;;;;;;;34.53;29.07;;;;;;;14.96;85.10;100888.47;5102329;28;20495;-61
2022/05/20 03:25:05;;;;;;;36.73;30.30;;;;;;;14.94;85.13;100885.94;5102477;28;20466;-61
2022/05/20 03:27:32;;;;;;;32.77;28.60;;;;;;;14.92;84.32;100881.72;5101523;28;20468;-61
2022/05/20 03:29:59;;;;;;;34.47;28.60;;;;;;;14.81;84.15;100878.25;5102078;28;20451;-61
2022/05/20 03:32:27;;;;;;;36.37;29.00;;;;;;;14.84;83.96;100877.06;5102744;28;20482;-61
2022/05/20 03:34:56;;;;;;;31.80;25.83;;;;;;;14.74;82.54;100879.84;5103123;28;20447;-61
2022/05/20 03:37:23;;;;;;;29.50;26.27;;;;;;;14.57;82.59;100883.34;5113478;28;20485;-61
2022/05/20 03:39:50;;;;;;;29.47;26.47;;;;;;;14.77;81.98;100884.06;5104183;28;20673;-61
2022/05/20 03:42:17;;;;;;;28.13;24.80;;;;;;;14.86;81.98;100884.00;5118299;28;20545;-62
2022/05/20 03:44:44;;;;;;;28.20;25.20;;;;;;;14.93;80.45;100892.34;5095734;28;20443;-62
2022/05/20 03:47:11;;;;;;;27.83;24.53;;;;;;;14.66;80.84;100890.53;5121745;28;20549;-61
2022/05/20 03:49:39;;;;;;;25.60;22.90;;;;;;;14.86;80.59;100885.88;5108643;28;20435;-62
2022/05/20 03:52:06;;;;;;;25.03;22.53;;;;;;;14.73;80.43;100894.31;5101190;28;20518;-62
2022/05/20 03:54:34;;;;;;;32.60;22.40;;;;;;;14.79;79.81;100896.41;5117527;28;20457;-61
2022/05/20 03:57:02;;;;;;;23.37;20.93;;;;;;;14.90;79.38;100895.31;5120553;28;20485;-61
2022/05/20 03:59:29;;;;;;;27.17;22.77;;;;;;;14.95;79.48;100901.09;5100205;28;20443;-62
2022/05/20 04:01:58;;;;;;;25.07;21.37;;;;;;;14.89;80.02;100904.38;5116287;28;20503;-62
2022/05/20 04:04:27;;;;;;;24.80;22.30;;;;;;;15.10;79.66;100903.25;5085894;28;20450;-62
2022/05/20 04:06:55;;;;;;;27.03;22.70;;;;;;;15.15;79.15;100901.78;5116139;28;20542;-62
2022/05/20 04:09:22;;;;;;;24.47;21.87;;;;;;;15.24;78.87;100890.09;5112735;28;20443;-61
2022/05/20 04:11:50;;;;;;;21.43;19.17;;;;;;;15.42;78.87;100895.44;5106571;28;20477;-61
2022/05/20 04:14:17;;;;;;;25.20;20.27;;;;;;;15.23;74.50;100887.56;5083185;28;20481;-61
2022/05/20 04:16:44;;;;;;;18.77;16.97;;;;;;;15.44;74.66;100901.53;5094295;28;20471;-61
2022/05/20 04:19:11;;;;;;;18.47;16.57;;;;;;;15.88;76.13;100902.53;5106240;28;20443;-64
2022/05/20 04:21:38;;;;;;;21.57;18.10;;;;;;;15.95;73.99;100909.84;5101248;28;20491;-62
2022/05/20 04:24:07;;;;;;;20.40;18.13;;;;;;;15.81;73.19;100905.00;5100962;28;20443;-62
2022/05/20 04:26:34;;;;;;;19.93;16.93;;;;;;;15.61;74.71;100917.84;5097899;28;20485;-62
2022/05/20 04:29:01;;;;;;;19.27;17.43;;;;;;;15.65;75.69;100905.72;5110610;28;20473;-62
2022/05/20 04:31:28;;;;;;;20.90;19.00;;;;;;;16.10;73.59;100906.53;5100954;28;20467;-62
2022/05/20 04:33:55;;;;;;;21.90;19.80;;;;;;;16.61;70.58;100904.72;5101911;28;20454;-62
2022/05/20 04:36:21;;;;;;;20.23;18.23;;;;;;;17.22;68.90;100907.22;5099813;28;20496;-62
2022/05/20 04:38:48;;;;;;;19.47;17.47;;;;;;;17.80;65.52;100908.03;5101520;28;21307;-62
2022/05/20 04:47:00;;;;;;;17.93;16.10;;;;;;;17.72;63.84;100900.78;5114983;28;20519;-62
2022/05/20 04:49:28;;;;;;;20.47;16.50;;;;;;;17.80;64.81;100902.63;5120020;28;20977;-62
2022/05/20 04:51:55;;;;;;;18.07;16.20;;;;;;;18.47;63.14;100904.13;5122192;28;20477;-62
2022/05/20 04:57:09;;;;;;;16.60;14.80;;;;;;;20.41;56.09;100895.53;5119055;28;20493;-61
2022/05/20 04:59:37;;;;;;;14.90;13.40;;;;;;;20.81;54.42;100897.94;5120410;28;20438;-61
2022/05/20 05:02:04;;;;;;;14.87;13.50;;;;;;;21.28;51.54;100895.69;5103583;28;20483;-61
2022/05/20 05:04:31;;;;;;;16.90;15.30;;;;;;;21.52;49.91;100900.72;5121547;28;20479;-62
2022/05/20 05:06:58;;;;;;;14.00;12.70;;;;;;;21.36;50.52;100904.53;5100652;28;20478;-62
2022/05/20 05:09:25;;;;;;;14.07;12.87;;;;;;;22.07;49.45;100902.81;5120021;28;20454;-62
2022/05/20 05:11:52;;;;;;;19.80;13.20;;;;;;;21.74;49.74;100908.88;5120776;28;20473;-62
2022/05/20 05:14:21;;;;;;;14.00;12.80;;;;;;;22.07;49.14;100908.25;5116727;28;20442;-62
2022/05/20 05:16:48;;;;;;;15.47;13.40;;;;;;;22.82;47.07;100901.06;5109868;28;20486;-62
2022/05/20 05:19:14;;;;;;;15.10;13.60;;;;;;;23.68;44.36;100904.97;5121665;28;20452;-62
2022/05/20 05:21:41;;;;;;;15.17;13.70;;;;;;;23.72;43.79;100905.38;5120636;28;20567;-62
2022/05/20 05:24:09;;;;;;;14.47;12.97;;;;;;;24.06;43.57;100917.94;5115235;28;21006;-62
2022/05/20 05:26:36;;;;;;;16.27;13.60;;;;;;;22.24;46.31;100911.47;5118209;28;20474;-62
2022/05/20 05:29:04;;;;;;;14.67;13.37;;;;;;;22.69;46.88;100920.94;5120584;28;20446;-62
2022/05/20 05:31:33;;;;;;;16.53;14.93;;;;;;;23.75;44.79;100924.91;5120403;28;20459;-62
2022/05/20 05:34:00;;;;;;;17.37;15.67;;;;;;;24.52;42.36;100919.69;5118572;27;20449;-63
2022/05/20 05:36:27;;;;;;;16.93;15.33;;;;;;;24.72;41.65;100916.06;5110087;27;20485;-62
2022/05/20 05:38:54;;;;;;;18.97;16.90;;;;;;;23.78;42.46;100926.34;5103437;28;20458;-62
2022/05/20 05:41:21;;;;;;;19.77;17.97;;;;;;;22.61;46.27;100923.84;5102734;28;20478;-62
2022/05/20 05:43:48;;;;;;;17.33;15.83;;;;;;;24.64;42.57;100917.16;5102541;28;20463;-62
2022/05/20 05:46:15;;;;;;;18.73;16.70;;;;;;;23.88;42.93;100913.16;5116884;27;20892;-62
2022/05/20 05:48:43;;;;;;;17.00;15.20;;;;;;;24.60;41.72;100919.47;5124148;28;20430;-63
2022/05/20 05:51:09;;;;;;;17.00;15.50;;;;;;;25.02;41.64;100920.97;5122368;27;20499;-63
2022/05/20 05:53:36;;;;;;;18.23;16.40;;;;;;;24.19;42.30;100915.19;5123744;28;20484;-62
2022/05/20 05:56:05;;;;;;;17.50;16.00;;;;;;;22.65;45.55;100919.66;5123093;28;20473;-62
2022/05/20 05:58:33;;;;;;;16.87;15.37;;;;;;;21.99;47.08;100907.38;5123715;28;20448;-63
2022/05/20 06:01:00;;;;;;;20.03;17.70;;;;;;;20.85;49.15;100905.53;5123144;28;20470;-62
2022/05/20 06:03:26;;;;;;;17.70;15.87;;;;;;;21.96;47.17;100898.75;5123809;28;20572;-62
2022/05/20 06:05:55;;;;;;;15.90;14.33;;;;;;;23.48;44.18;100896.75;5122163;28;20534;-62
2022/05/20 06:08:22;;;;;;;15.77;14.27;;;;;;;24.43;41.16;100908.16;5123209;28;20454;-62
2022/05/20 06:10:49;;;;;;;14.20;12.93;;;;;;;24.72;40.35;100905.97;5123266;28;20529;-62
2022/05/20 06:13:22;;;;;;;14.03;12.73;;;;;;;25.24;40.65;100902.28;5123667;28;20449;-62
2022/05/20 06:15:49;;;;;;;14.50;13.23;;;;;;;23.07;43.89;100892.31;5113009;28;20467;-62
2022/05/20 06:18:16;;;;;;;13.60;12.40;;;;;;;25.15;39.93;100893.50;5103565;28;20423;-63
2022/05/20 06:20:42;;;;;;;14.30;13.00;;;;;;;24.88;39.91;100887.38;5102009;28;20804;-62
2022/05/20 06:23:11;;;;;;;14.40;13.10;;;;;;;24.36;41.58;100892.84;5103076;28;20479;-62
2022/05/20 06:25:38;;;;;;;15.03;13.53;;;;;;;25.45;39.50;100896.47;5109976;28;20515;-62
2022/05/20 06:28:07;;;;;;;14.63;13.30;;;;;;;26.05;37.44;100897.81;5123135;28;20456;-63
2022/05/20 06:30:34;;;;;;;14.70;13.40;;;;;;;25.49;38.25;100888.63;5118861;28;20474;-63
2022/05/20 06:33:03;;;;;;;17.13;14.00;;;;;;;24.76;39.73;100887.22;5110768;28;20511;-63
2022/05/20 06:41:00;;;;;;;14.90;13.60;;;;;;;23.46;43.98;100877.03;5122408;28;20588;-62
2022/05/20 06:43:27;;;;;;;15.47;13.97;;;;;;;23.31;44.13;100871.78;5122293;28;20470;-62
2022/05/20 06:45:57;;;;;;;14.27;13.07;;;;;;;25.22;39.86;100872.38;5120405;27;20466;-62
2022/05/20 06:48:24;;;;;;;13.90;12.57;;;;;;;25.74;38.05;100878.50;5123354;28;21021;-63
2022/05/20 06:50:51;;;;;;;17.30;12.47;;;;;;;25.61;38.16;100873.16;5121676;27;20469;-62
2022/05/20 06:53:19;;;;;;;14.33;13.03;;;;;;;25.14;38.93;100875.41;5122134;28;20450;-62
2022/05/20 06:55:46;;;;;;;13.80;12.50;;;;;;;23.81;41.30;100879.56;5113764;28;20489;-62
2022/05/20 06:58:13;;;;;;;13.50;12.23;;;;;;;24.59;40.26;100865.03;5101910;28;20446;-62
2022/05/20 07:00:40;;;;;;;11.80;10.70;;;;;;;26.40;38.16;100869.78;5101546;28;20475;-63
2022/05/20 07:03:06;;;;;;;10.30;9.30;;;;;;;28.12;34.00;100862.63;5102287;28;21102;-60
2022/05/20 07:05:34;;;;;;;12.00;10.90;;;;;;;25.54;36.44;100858.69;5106950;28;20469;-63
2022/05/20 07:08:00;;;;;;;12.37;11.37;;;;;;;24.78;39.94;100858.59;5122065;28;20453;-61
2022/05/20 07:10:29;;;;;;;12.17;10.67;;;;;;;26.05;37.64;100853.97;5122329;28;20487;-61
2022/05/20 07:12:55;;;;;;;11.30;10.27;;;;;;;27.78;34.81;100851.41;5122278;28;20491;-61
2022/05/20 07:15:22;;;;;;;12.63;11.53;;;;;;;25.11;38.22;100846.59;5120831;28;20438;-61
2022/05/20 07:17:49;;;;;;;11.87;10.80;;;;;;;25.91;38.02;100856.81;5122523;28;20434;-62
2022/05/20 07:20:16;;;;;;;10.63;9.73;;;;;;;26.94;36.76;100848.78;5121432;28;20478;-62
2022/05/20 07:22:42;;;;;;;10.07;9.17;;;;;;;28.11;34.09;100838.13;5121335;28;20507;-62
2022/05/20 07:25:10;;;;;;;11.80;10.80;;;;;;;25.16;38.71;100835.81;5120455;28;20445;-61
2022/05/20 07:27:39;;;;;;;11.57;10.50;;;;;;;26.40;37.40;100842.34;5121207;28;20472;-62
2022/05/20 07:30:07;;;;;;;10.93;10.03;;;;;;;26.15;37.16;100837.00;5122120;28;20426;-62
2022/05/20 07:32:34;;;;;;;10.43;9.53;;;;;;;27.35;34.12;100836.13;5119913;28;20461;-62
2022/05/20 07:35:01;;;;;;;10.13;9.20;;;;;;;27.15;34.70;100830.94;5119674;28;20450;-61
2022/05/20 07:37:28;;;;;;;11.50;10.37;;;;;;;26.39;35.56;100836.03;5100963;28;20487;-62
2022/05/20 07:39:55;;;;;;;10.60;9.17;;;;;;;26.26;36.25;100830.72;5100561;28;20469;-62
2022/05/20 07:42:22;;;;;;;10.10;9.20;;;;;;;26.67;35.33;100829.16;5084468;28;20488;-62
2022/05/20 07:44:51;;;;;;;10.30;9.37;;;;;;;28.27;32.14;100822.75;5080309;28;20448;-62
2022/05/20 07:47:20;;;;;;;9.27;8.47;;;;;;;28.49;31.83;100815.50;5100253;28;20506;-62
2022/05/20 07:49:47;;;;;;;9.07;8.27;;;;;;;27.66;32.66;100809.38;5100601;28;20431;-61
2022/05/20 07:53:19;;;;;;;10.10;8.30;;;;;;;28.06;31.19;100811.34;5100354;28;20572;-61
2022/05/20 07:55:03;;;;;;;10.70;9.70;;;;;;;27.29;33.16;100814.25;5099210;28;20489;-61
2022/05/20 07:57:30;;;;;;;10.27;9.27;;;;;;;29.46;29.72;100807.25;5079194;28;20471;-62
2022/05/20 08:00:00;;;;;;;10.13;9.23;;;;;;;29.64;29.85;100806.97;5080991;28;20454;-62
2022/05/20 08:02:29;;;;;;;9.73;8.80;;;;;;;30.24;28.77;100798.91;5080073;28;20558;-62
2022/05/20 08:04:57;;;;;;;9.50;8.67;;;;;;;27.41;32.83;100788.50;5080660;28;20452;-62
2022/05/20 08:07:26;;;;;;;10.10;9.10;;;;;;;28.58;30.77;100796.72;5100987;28;20501;-62
2022/05/20 08:09:53;;;;;;;9.80;8.90;;;;;;;28.42;31.77;100792.81;5101356;28;20469;-62
2022/05/20 08:12:20;;;;;;;10.60;9.60;;;;;;;27.90;31.70;100801.91;5100572;28;20478;-62
2022/05/20 08:14:47;;;;;;;11.20;9.30;;;;;;;27.10;33.81;100799.78;5099709;28;20427;-63
2022/05/20 08:17:17;;;;;;;10.60;9.53;;;;;;;26.19;35.70;100800.66;5099526;28;20496;-62
2022/05/20 08:19:44;;;;;;;9.77;8.80;;;;;;;28.98;32.39;100803.19;5099874;28;20469;-63
2022/05/20 08:22:13;;;;;;;10.73;9.73;;;;;;;28.09;33.50;100797.13;5100068;28;20470;-63
2022/05/20 08:24:40;;;;;;;10.50;9.50;;;;;;;29.00;32.09;100790.00;5099677;28;20554;-62
2022/05/20 08:27:07;;;;;;;10.73;9.63;;;;;;;28.21;33.70;100790.72;5082011;28;20547;-62
2022/05/20 08:29:35;;;;;;;10.03;8.97;;;;;;;29.08;32.21;100779.41;5080410;28;20424;-63
2022/05/20 08:32:02;;;;;;;10.30;9.40;;;;;;;28.37;32.43;100770.72;5079963;28;20472;-63
2022/05/20 08:34:38;;;;;;;9.50;8.50;;;;;;;27.52;34.18;100764.00;5087965;28;20431;-62
2022/05/20 08:37:05;;;;;;;8.67;7.53;;;;;;;28.74;32.31;100759.28;5099925;28;20478;-63
2022/05/20 08:39:32;;;;;;;11.33;9.03;;;;;;;29.67;31.07;100756.88;5100855;28;20726;-62
2022/05/20 08:41:59;;;;;;;11.80;10.07;;;;;;;27.73;33.14;100757.88;5098155;28;20485;-62
2022/05/20 08:44:25;;;;;;;12.13;8.83;;;;;;;28.07;34.00;100751.69;5099933;28;21089;-63
2022/05/20 08:47:06;;;;;;;11.13;10.03;;;;;;;28.43;31.17;100744.97;5100036;28;20483;-62
2022/05/20 08:49:38;;;;;;;10.30;8.57;;;;;;;27.11;34.33;100738.31;5100012;28;20443;-62
2022/05/20 08:52:05;;;;;;;10.40;9.40;;;;;;;26.68;34.39;100732.94;5112138;28;20466;-62
2022/05/20 08:54:32;;;;;;;10.37;9.37;;;;;;;27.49;33.51;100728.78;5119933;28;20450;-62
2022/05/20 08:57:12;;;;;;;9.20;8.40;;;;;;;27.83;34.24;100729.78;5107188;28;20501;-62
2022/05/20 08:59:39;;;;;;;9.60;8.60;;;;;;;27.87;33.97;100728.19;5123851;28;20453;-62
2022/05/20 09:02:06;;;;;;;10.00;9.00;;;;;;;27.89;33.50;100726.03;5107399;28;20475;-62
2022/05/20 09:04:34;;;;;;;12.63;8.53;;;;;;;29.02;30.47;100719.81;5100699;28;20471;-62
2022/05/20 09:07:04;;;;;;;8.80;7.90;;;;;;;28.67;32.75;100714.59;5099350;28;20539;-62
2022/05/20 09:09:42;;;;;;;10.40;9.30;;;;;;;28.80;32.71;100716.19;5117359;28;20541;-62
2022/05/20 09:12:10;;;;;;;8.60;7.43;;;;;;;29.55;31.26;100719.50;5123874;28;20990;-62
2022/05/20 09:17:23;;;;;;;7.83;6.63;;;;;;;29.96;29.22;100712.56;5118210;28;20473;-63
2022/05/20 09:20:01;;;;;;;6.90;6.30;;;;;;;29.70;30.79;100710.59;5105230;28;20447;-63
2022/05/20 09:22:30;;;;;;;7.90;7.10;;;;;;;31.23;27.00;100702.09;5103337;28;20482;-62
2022/05/20 09:24:57;;;;;;;7.40;6.70;;;;;;;30.98;28.18;100693.38;5102977;28;20497;-62
2022/05/20 09:27:29;;;;;;;10.70;7.87;;;;;;;27.60;33.96;100681.22;5102586;28;20995;-63
2022/05/20 09:29:59;;;;;;;7.13;6.43;;;;;;;28.82;31.47;100680.97;5122383;28;20510;-62
2022/05/20 09:32:29;;;;;;;11.80;7.97;;;;;;;28.64;31.37;100674.66;5123607;28;20462;-62
2022/05/20 09:35:01;;;;;;;8.57;7.77;;;;;;;27.33;33.67;100659.81;5122514;28;20437;-62
2022/05/20 09:37:30;;;;;;;9.67;6.73;;;;;;;28.60;33.37;100656.16;5102938;28;20473;-62
2022/05/20 09:39:57;;;;;;;10.43;9.33;;;;;;;28.70;31.10;100659.09;5103627;28;20455;-63
2022/05/20 09:42:26;;;;;;;9.40;8.50;;;;;;;27.77;32.73;100665.63;5102765;28;20579;-62
2022/05/20 09:44:56;;;;;;;11.13;7.90;;;;;;;27.51;34.13;100674.44;5103352;28;20471;-62
2022/05/20 09:47:31;;;;;;;9.27;8.30;;;;;;;27.65;33.29;100670.34;5123667;28;20477;-62
2022/05/20 09:50:00;;;;;;;9.63;8.73;;;;;;;27.76;35.41;100666.72;5123916;28;20437;-62
2022/05/20 09:52:40;;;;;;;7.90;7.10;;;;;;;27.99;33.58;100670.47;5123783;28;20474;-62
2022/05/20 09:55:14;;;;;;;9.20;6.80;;;;;;;29.43;30.64;100662.59;5120714;28;20446;-62
2022/05/20 09:57:42;;;;;;;8.70;7.63;;;;;;;29.14;32.91;100659.16;5100046;28;20496;-62
2022/05/20 10:00:15;;;;;;;11.17;8.60;;;;;;;28.51;33.16;100656.53;5106127;28;20554;-62
2022/05/20 10:02:52;;;;;;;13.47;8.07;;;;;;;28.43;34.13;100665.19;5122697;28;20454;-62
2022/05/20 10:05:24;;;;;;;8.97;8.03;;;;;;;29.27;32.49;100666.25;5113004;28;20442;-62
2022/05/20 10:08:07;;;;;;;14.37;8.07;;;;;;;29.01;33.33;100649.34;5104111;28;20908;-62
2022/05/20 10:10:46;;;;;;;7.63;6.90;;;;;;;28.69;34.54;100660.16;5123652;27;20485;-62
2022/05/20 10:13:33;;;;;;;9.20;7.73;;;;;;;28.93;32.78;100655.28;5123474;28;20510;-62
2022/05/20 10:16:09;;;;;;;9.80;7.20;;;;;;;28.51;33.71;100647.47;5099317;27;20513;-62
2022/05/20 10:18:42;;;;;;;8.80;6.70;;;;;;;28.31;34.26;100640.53;5122873;28;20426;-62
2022/05/20 10:21:15;;;;;;;8.57;7.77;;;;;;;28.50;33.65;100632.84;5113929;27;20491;-62
2022/05/20 10:23:49;;;;;;;9.00;6.90;;;;;;;28.36;35.86;100631.53;5120851;28;20477;-62
2022/05/20 10:26:24;;;;;;;10.07;8.37;;;;;;;29.04;32.73;100623.22;5115888;28;20496;-63
2022/05/20 10:34:31;;;;;;;9.20;7.77;;;;;;;28.52;35.76;100616.97;5117926;28;20458;-62
2022/05/20 10:37:03;;;;;;;7.80;7.00;;;;;;;29.27;35.00;100611.19;5101499;28;20520;-62
2022/05/20 10:39:52;;;;;;;9.00;7.93;;;;;;;27.45;37.90;100599.38;5102024;28;20518;-62
2022/05/20 10:42:44;;;;;;;8.50;7.70;;;;;;;27.50;38.40;100590.38;5101322;28;20510;-62
2022/05/20 10:48:36;;;;;;;8.07;7.20;;;;;;;28.09;38.17;100579.13;5103374;28;20434;-62
2022/05/20 10:51:17;;;;;;;9.07;8.27;;;;;;;27.93;36.91;100561.53;5100612;28;20518;-62
2022/05/20 10:53:53;;;;;;;8.03;7.27;;;;;;;27.68;38.55;100567.38;5114378;28;20499;-62
2022/05/20 10:56:30;;;;;;;8.83;7.63;;;;;;;27.53;38.25;100556.94;5119787;28;20474;-62
2022/05/20 10:59:10;;;;;;;8.47;7.57;;;;;;;27.29;38.39;100556.19;5120938;28;20441;-61
2022/05/20 11:01:45;;;;;;;11.03;8.47;;;;;;;28.06;38.52;100554.91;5120761;28;20489;-62
2022/05/20 11:04:40;;;;;;;11.70;8.80;;;;;;;29.58;34.75;100545.41;5106199;28;20466;-62
2022/05/20 11:07:26;;;;;;;9.33;7.47;;;;;;;28.94;36.07;100549.63;5099929;28;20508;-62
2022/05/20 11:10:01;;;;;;;7.13;6.53;;;;;;;29.63;36.09;100537.19;5105679;28;20450;-62
2022/05/20 11:12:31;;;;;;;10.57;9.57;;;;;;;28.93;36.15;100521.25;5120214;27;20481;-62
2022/05/20 11:15:11;;;;;;;8.80;7.87;;;;;;;28.66;37.34;100512.94;5099675;28;20461;-62
2022/05/20 11:17:57;;;;;;;12.27;8.30;;;;;;;28.06;39.04;100513.66;5099981;28;20508;-62
2022/05/20 11:20:57;;;;;;;10.43;9.43;;;;;;;29.24;36.25;100505.13;5099557;28;20449;-61
2022/05/20 11:23:49;;;;;;;9.20;8.30;;;;;;;29.21;35.68;100502.06;5101086;28;21117;-61
2022/05/20 11:26:51;;;;;;;9.87;8.73;;;;;;;28.46;38.21;100499.69;5085964;28;20467;-62
2022/05/20 11:29:39;;;;;;;9.70;8.70;;;;;;;28.51;37.25;100486.00;5100602;28;20433;-62
2022/05/20 11:32:07;;;;;;;12.83;8.00;;;;;;;27.22;40.15;100477.56;5099167;28;20504;-62
2022/05/20 11:34:54;;;;;;;7.97;7.17;;;;;;;28.08;39.64;100464.78;5099802;28;20434;-62
2022/05/20 11:37:30;;;;;;;9.03;8.13;;;;;;;27.16;41.92;100459.31;5099194;28;20470;-62
2022/05/20 11:40:20;;;;;;;10.17;9.17;;;;;;;28.15;38.33;100459.94;5099930;28;20487;-62
2022/05/20 11:43:06;;;;;;;9.30;8.30;;;;;;;29.38;36.79;100435.88;5099956;28;20481;-62
2022/05/20 11:45:39;;;;;;;8.63;7.83;;;;;;;27.71;41.04;100438.63;5098967;28;20967;-62
2022/05/20 11:48:25;;;;;;;9.93;9.00;;;;;;;26.92;42.06;100439.38;5118875;28;20448;-61
2022/05/20 11:51:04;;;;;;;9.80;8.80;;;;;;;27.73;40.28;100425.47;5111271;28;20458;-62
2022/05/20 11:53:38;;;;;;;10.57;9.47;;;;;;;26.43;44.43;100419.69;5120458;28;20445;-63
2022/05/20 11:56:09;;;;;;;12.23;9.00;;;;;;;27.50;42.74;100406.38;5118563;28;20499;-62
2022/05/20 11:58:40;;;;;;;12.00;10.30;;;;;;;27.55;41.06;100410.06;5120205;28;20438;-62
2022/05/20 12:01:09;;;;;;;9.97;8.93;;;;;;;27.72;42.90;100400.97;5119172;28;20478;-62